KDIJ

Driggs-Reed Memorial Airport

Driggs, Idaho, USA
METAR KDIJ 170356Z AUTO 11003KT 10SM CLR M01/M04 A3042 RMK AO2 SLP324 T10111044
Observed Flight Rules
Oct-17 @ 03:56 UTC (an hour ago) Visual Flight Rules
Wind Visibility Clouds
110° at 3 knots 10 miles
  • Clear skies
Temperatures Readings
Current -1°C / 30°F
Dewpoint -4°C / 25°F
Humidity 80%
Altimeter 30.42" Hg
Pressure 1032.4 hPa
Elevation 1899
METAR KDIJ 170356Z AUTO 11003KT 10SM CLR M01/M04 A3042 RMK AO2 SLP324 T10111044
Observed Flight Rules
Oct-17 @ 03:56 UTC
(an hour ago)
VFR
Wind Visibility
110° at 3 knots 10 miles
Clouds
  • Clear skies
Temperature Dewpoint
-1°C / 30°F -4°C / 25°F
Humidity Altimeter Pressure
80% 30.42" Hg 1032.4 hPa